sensor_id;sensor_type;location;lat;lon;timestamp;P1;durP1;ratioP1;P2;durP2;ratioP2
27213;SDS011;14723;55.814;37.460;2023-07-29T00:00:23;4.93;;;2.90;;
27213;SDS011;14723;55.814;37.460;2023-07-29T00:03:30;6.43;;;3.00;;
27213;SDS011;14723;55.814;37.460;2023-07-29T00:06:38;5.63;;;3.10;;
27213;SDS011;14723;55.814;37.460;2023-07-29T00:09:43;4.75;;;3.05;;
27213;SDS011;14723;55.814;37.460;2023-07-29T00:12:48;3.60;;;3.05;;
27213;SDS011;14723;55.814;37.460;2023-07-29T00:15:54;6.85;;;3.05;;
27213;SDS011;14723;55.814;37.460;2023-07-29T00:18:59;5.47;;;2.88;;
27213;SDS011;14723;55.814;37.460;2023-07-29T00:22:07;4.82;;;2.60;;
27213;SDS011;14723;55.814;37.460;2023-07-29T00:25:13;3.10;;;2.75;;
27213;SDS011;14723;55.814;37.460;2023-07-29T00:28:19;11.48;;;3.95;;
27213;SDS011;14723;55.814;37.460;2023-07-29T00:31:24;5.05;;;3.15;;
27213;SDS011;14723;55.814;37.460;2023-07-29T00:34:31;7.30;;;2.72;;
27213;SDS011;14723;55.814;37.460;2023-07-29T00:37:40;5.60;;;3.30;;
27213;SDS011;14723;55.814;37.460;2023-07-29T00:40:46;8.32;;;3.35;;
27213;SDS011;14723;55.814;37.460;2023-07-29T00:43:52;5.10;;;2.72;;
27213;SDS011;14723;55.814;37.460;2023-07-29T00:46:57;5.82;;;3.35;;
27213;SDS011;14723;55.814;37.460;2023-07-29T00:50:03;4.10;;;3.17;;
27213;SDS011;14723;55.814;37.460;2023-07-29T00:53:12;5.18;;;2.83;;
27213;SDS011;14723;55.814;37.460;2023-07-29T00:56:17;5.05;;;3.25;;
27213;SDS011;14723;55.814;37.460;2023-07-29T00:59:23;6.90;;;3.08;;
27213;SDS011;14723;55.814;37.460;2023-07-29T01:02:30;3.23;;;2.73;;
27213;SDS011;14723;55.814;37.460;2023-07-29T01:05:38;5.93;;;2.92;;
27213;SDS011;14723;55.814;37.460;2023-07-29T01:08:49;4.93;;;2.72;;
27213;SDS011;14723;55.814;37.460;2023-07-29T01:11:59;5.05;;;3.10;;
27213;SDS011;14723;55.814;37.460;2023-07-29T01:15:09;5.00;;;3.42;;
27213;SDS011;14723;55.814;37.460;2023-07-29T01:18:21;5.80;;;3.30;;
27213;SDS011;14723;55.814;37.460;2023-07-29T01:21:27;10.27;;;3.10;;
27213;SDS011;14723;55.814;37.460;2023-07-29T01:24:36;3.78;;;2.85;;
27213;SDS011;14723;55.814;37.460;2023-07-29T01:27:42;5.22;;;3.28;;
27213;SDS011;14723;55.814;37.460;2023-07-29T01:30:48;5.97;;;3.40;;
27213;SDS011;14723;55.814;37.460;2023-07-29T01:33:56;6.97;;;3.58;;
27213;SDS011;14723;55.814;37.460;2023-07-29T01:37:03;5.15;;;3.33;;
27213;SDS011;14723;55.814;37.460;2023-07-29T01:40:12;7.28;;;4.13;;
27213;SDS011;14723;55.814;37.460;2023-07-29T01:43:18;4.35;;;3.30;;
27213;SDS011;14723;55.814;37.460;2023-07-29T01:46:27;7.80;;;3.30;;
27213;SDS011;14723;55.814;37.460;2023-07-29T01:49:32;4.82;;;2.85;;
27213;SDS011;14723;55.814;37.460;2023-07-29T01:52:37;8.73;;;3.92;;
27213;SDS011;14723;55.814;37.460;2023-07-29T01:55:46;5.15;;;2.80;;
27213;SDS011;14723;55.814;37.460;2023-07-29T01:58:51;8.65;;;3.78;;
27213;SDS011;14723;55.814;37.460;2023-07-29T02:01:57;3.63;;;3.00;;
27213;SDS011;14723;55.814;37.460;2023-07-29T02:05:02;5.00;;;3.58;;
27213;SDS011;14723;55.814;37.460;2023-07-29T02:08:08;6.28;;;3.53;;
27213;SDS011;14723;55.814;37.460;2023-07-29T02:11:16;4.68;;;3.40;;
27213;SDS011;14723;55.814;37.460;2023-07-29T02:14:23;5.75;;;3.50;;
27213;SDS011;14723;55.814;37.460;2023-07-29T02:17:28;5.60;;;3.17;;
27213;SDS011;14723;55.814;37.460;2023-07-29T02:20:33;3.50;;;3.20;;
27213;SDS011;14723;55.814;37.460;2023-07-29T02:23:38;6.05;;;3.60;;
27213;SDS011;14723;55.814;37.460;2023-07-29T02:26:47;4.15;;;2.60;;
27213;SDS011;14723;55.814;37.460;2023-07-29T02:29:52;7.07;;;3.33;;
27213;SDS011;14723;55.814;37.460;2023-07-29T02:32:58;6.18;;;3.65;;
27213;SDS011;14723;55.814;37.460;2023-07-29T02:36:04;6.10;;;3.50;;
27213;SDS011;14723;55.814;37.460;2023-07-29T02:39:10;4.78;;;3.42;;
27213;SDS011;14723;55.814;37.460;2023-07-29T02:42:18;5.50;;;3.55;;
27213;SDS011;14723;55.814;37.460;2023-07-29T02:45:23;4.35;;;3.13;;
27213;SDS011;14723;55.814;37.460;2023-07-29T02:48:29;5.47;;;3.20;;
27213;SDS011;14723;55.814;37.460;2023-07-29T02:51:34;4.55;;;3.47;;
27213;SDS011;14723;55.814;37.460;2023-07-29T02:54:39;3.65;;;3.10;;
27213;SDS011;14723;55.814;37.460;2023-07-29T02:57:47;4.00;;;3.53;;
27213;SDS011;14723;55.814;37.460;2023-07-29T03:00:53;5.28;;;3.88;;
27213;SDS011;14723;55.814;37.460;2023-07-29T03:03:58;4.38;;;3.42;;
27213;SDS011;14723;55.814;37.460;2023-07-29T03:07:03;5.53;;;4.10;;
27213;SDS011;14723;55.814;37.460;2023-07-29T03:10:09;7.40;;;4.28;;
27213;SDS011;14723;55.814;37.460;2023-07-29T03:13:18;6.22;;;4.78;;
27213;SDS011;14723;55.814;37.460;2023-07-29T03:16:23;6.22;;;4.53;;
27213;SDS011;14723;55.814;37.460;2023-07-29T03:19:31;6.47;;;4.00;;
27213;SDS011;14723;55.814;37.460;2023-07-29T03:22:36;7.40;;;4.28;;
27213;SDS011;14723;55.814;37.460;2023-07-29T03:25:41;5.78;;;4.50;;
27213;SDS011;14723;55.814;37.460;2023-07-29T03:28:49;6.03;;;4.53;;
27213;SDS011;14723;55.814;37.460;2023-07-29T03:31:55;8.27;;;4.68;;
27213;SDS011;14723;55.814;37.460;2023-07-29T03:35:00;6.97;;;5.20;;
27213;SDS011;14723;55.814;37.460;2023-07-29T03:38:06;6.28;;;4.97;;
27213;SDS011;14723;55.814;37.460;2023-07-29T03:41:12;6.88;;;4.90;;
27213;SDS011;14723;55.814;37.460;2023-07-29T03:44:20;9.20;;;5.57;;
27213;SDS011;14723;55.814;37.460;2023-07-29T03:47:25;9.70;;;5.45;;
27213;SDS011;14723;55.814;37.460;2023-07-29T03:50:32;11.85;;;5.70;;
27213;SDS011;14723;55.814;37.460;2023-07-29T03:53:39;8.82;;;5.57;;
27213;SDS011;14723;55.814;37.460;2023-07-29T03:56:44;8.15;;;5.85;;
27213;SDS011;14723;55.814;37.460;2023-07-29T03:59:52;12.02;;;5.18;;
27213;SDS011;14723;55.814;37.460;2023-07-29T04:02:57;8.07;;;5.07;;
27213;SDS011;14723;55.814;37.460;2023-07-29T04:06:03;8.82;;;5.32;;
27213;SDS011;14723;55.814;37.460;2023-07-29T04:09:09;9.52;;;5.25;;
27213;SDS011;14723;55.814;37.460;2023-07-29T04:12:14;9.25;;;5.07;;
27213;SDS011;14723;55.814;37.460;2023-07-29T04:15:26;5.15;;;4.18;;
27213;SDS011;14723;55.814;37.460;2023-07-29T04:18:32;7.38;;;4.85;;
27213;SDS011;14723;55.814;37.460;2023-07-29T04:21:37;5.65;;;4.63;;
27213;SDS011;14723;55.814;37.460;2023-07-29T04:24:43;6.45;;;4.75;;
27213;SDS011;14723;55.814;37.460;2023-07-29T04:27:48;6.43;;;4.70;;
27213;SDS011;14723;55.814;37.460;2023-07-29T04:30:56;5.35;;;4.63;;
27213;SDS011;14723;55.814;37.460;2023-07-29T04:34:02;7.45;;;4.30;;
27213;SDS011;14723;55.814;37.460;2023-07-29T04:37:07;6.45;;;4.50;;
27213;SDS011;14723;55.814;37.460;2023-07-29T04:40:13;8.80;;;4.13;;
27213;SDS011;14723;55.814;37.460;2023-07-29T04:43:18;5.43;;;4.00;;
27213;SDS011;14723;55.814;37.460;2023-07-29T04:46:26;5.85;;;4.38;;
27213;SDS011;14723;55.814;37.460;2023-07-29T04:49:32;10.05;;;4.50;;
27213;SDS011;14723;55.814;37.460;2023-07-29T04:52:37;8.07;;;4.53;;
27213;SDS011;14723;55.814;37.460;2023-07-29T04:55:42;6.47;;;4.13;;
27213;SDS011;14723;55.814;37.460;2023-07-29T04:58:47;7.50;;;4.28;;
27213;SDS011;14723;55.814;37.460;2023-07-29T05:01:55;8.48;;;4.03;;
27213;SDS011;14723;55.814;37.460;2023-07-29T05:05:01;5.82;;;4.28;;
27213;SDS011;14723;55.814;37.460;2023-07-29T05:08:06;5.32;;;3.90;;
27213;SDS011;14723;55.814;37.460;2023-07-29T05:11:12;8.77;;;4.57;;
27213;SDS011;14723;55.814;37.460;2023-07-29T05:14:17;4.97;;;4.47;;
27213;SDS011;14723;55.814;37.460;2023-07-29T05:17:25;6.45;;;4.45;;
27213;SDS011;14723;55.814;37.460;2023-07-29T05:20:31;5.88;;;4.32;;
27213;SDS011;14723;55.814;37.460;2023-07-29T05:23:37;6.75;;;4.00;;
27213;SDS011;14723;55.814;37.460;2023-07-29T05:26:42;4.00;;;3.60;;
27213;SDS011;14723;55.814;37.460;2023-07-29T05:29:47;5.53;;;4.32;;
27213;SDS011;14723;55.814;37.460;2023-07-29T05:32:55;5.63;;;3.88;;
27213;SDS011;14723;55.814;37.460;2023-07-29T05:36:01;5.97;;;3.90;;
27213;SDS011;14723;55.814;37.460;2023-07-29T05:39:07;6.57;;;4.45;;
27213;SDS011;14723;55.814;37.460;2023-07-29T05:42:14;5.50;;;3.83;;
27213;SDS011;14723;55.814;37.460;2023-07-29T05:45:20;5.22;;;3.85;;
27213;SDS011;14723;55.814;37.460;2023-07-29T05:48:28;5.13;;;4.00;;
27213;SDS011;14723;55.814;37.460;2023-07-29T05:54:38;8.00;;;4.35;;
27213;SDS011;14723;55.814;37.460;2023-07-29T05:57:45;7.72;;;3.60;;
27213;SDS011;14723;55.814;37.460;2023-07-29T06:00:50;6.40;;;3.85;;
27213;SDS011;14723;55.814;37.460;2023-07-29T06:03:58;7.03;;;4.20;;
27213;SDS011;14723;55.814;37.460;2023-07-29T06:07:04;5.18;;;4.22;;
27213;SDS011;14723;55.814;37.460;2023-07-29T06:10:13;7.45;;;3.70;;
27213;SDS011;14723;55.814;37.460;2023-07-29T06:13:21;5.47;;;3.55;;
27213;SDS011;14723;55.814;37.460;2023-07-29T06:16:27;7.78;;;3.85;;
27213;SDS011;14723;55.814;37.460;2023-07-29T06:19:35;6.47;;;3.92;;
27213;SDS011;14723;55.814;37.460;2023-07-29T06:22:40;6.60;;;3.97;;
27213;SDS011;14723;55.814;37.460;2023-07-29T06:25:46;5.13;;;3.88;;
27213;SDS011;14723;55.814;37.460;2023-07-29T06:28:51;7.13;;;4.13;;
27213;SDS011;14723;55.814;37.460;2023-07-29T06:31:57;7.55;;;4.40;;
27213;SDS011;14723;55.814;37.460;2023-07-29T06:35:06;9.57;;;4.60;;
27213;SDS011;14723;55.814;37.460;2023-07-29T06:41:17;8.68;;;4.45;;
27213;SDS011;14723;55.814;37.460;2023-07-29T06:44:24;8.73;;;4.47;;
27213;SDS011;14723;55.814;37.460;2023-07-29T06:47:29;4.82;;;4.22;;
27213;SDS011;14723;55.814;37.460;2023-07-29T06:50:37;5.55;;;4.60;;
27213;SDS011;14723;55.814;37.460;2023-07-29T06:53:42;6.28;;;4.40;;
27213;SDS011;14723;55.814;37.460;2023-07-29T06:56:47;5.25;;;4.15;;
27213;SDS011;14723;55.814;37.460;2023-07-29T06:59:52;5.70;;;4.90;;
27213;SDS011;14723;55.814;37.460;2023-07-29T07:02:58;5.55;;;4.20;;
27213;SDS011;14723;55.814;37.460;2023-07-29T07:06:06;5.47;;;4.47;;
27213;SDS011;14723;55.814;37.460;2023-07-29T07:09:11;6.80;;;5.28;;
27213;SDS011;14723;55.814;37.460;2023-07-29T07:12:16;7.30;;;4.97;;
27213;SDS011;14723;55.814;37.460;2023-07-29T07:15:21;6.82;;;4.75;;
27213;SDS011;14723;55.814;37.460;2023-07-29T07:18:27;8.32;;;5.07;;
27213;SDS011;14723;55.814;37.460;2023-07-29T07:21:35;8.93;;;4.88;;
27213;SDS011;14723;55.814;37.460;2023-07-29T07:24:40;6.55;;;4.93;;
27213;SDS011;14723;55.814;37.460;2023-07-29T07:27:46;7.40;;;4.47;;
27213;SDS011;14723;55.814;37.460;2023-07-29T07:30:51;5.63;;;4.30;;
27213;SDS011;14723;55.814;37.460;2023-07-29T07:33:58;7.43;;;4.55;;
27213;SDS011;14723;55.814;37.460;2023-07-29T07:37:07;5.53;;;4.65;;
27213;SDS011;14723;55.814;37.460;2023-07-29T07:40:12;6.82;;;4.15;;
27213;SDS011;14723;55.814;37.460;2023-07-29T07:43:18;6.70;;;4.38;;
27213;SDS011;14723;55.814;37.460;2023-07-29T07:46:23;6.50;;;4.53;;
27213;SDS011;14723;55.814;37.460;2023-07-29T07:49:29;5.43;;;4.28;;
27213;SDS011;14723;55.814;37.460;2023-07-29T07:52:37;8.25;;;4.90;;
27213;SDS011;14723;55.814;37.460;2023-07-29T07:55:42;7.18;;;4.43;;
27213;SDS011;14723;55.814;37.460;2023-07-29T07:58:47;5.65;;;4.95;;
27213;SDS011;14723;55.814;37.460;2023-07-29T08:01:52;6.13;;;4.80;;
27213;SDS011;14723;55.814;37.460;2023-07-29T08:04:58;9.73;;;4.35;;
27213;SDS011;14723;55.814;37.460;2023-07-29T08:08:06;6.30;;;4.30;;
27213;SDS011;14723;55.814;37.460;2023-07-29T08:11:11;8.20;;;4.97;;
27213;SDS011;14723;55.814;37.460;2023-07-29T08:14:17;4.80;;;4.05;;
27213;SDS011;14723;55.814;37.460;2023-07-29T08:17:22;6.50;;;4.55;;
27213;SDS011;14723;55.814;37.460;2023-07-29T08:20:27;6.18;;;4.47;;
27213;SDS011;14723;55.814;37.460;2023-07-29T08:23:36;7.15;;;3.97;;
27213;SDS011;14723;55.814;37.460;2023-07-29T08:26:41;5.47;;;4.68;;
27213;SDS011;14723;55.814;37.460;2023-07-29T08:29:47;5.72;;;4.03;;
27213;SDS011;14723;55.814;37.460;2023-07-29T08:32:52;6.35;;;3.78;;
27213;SDS011;14723;55.814;37.460;2023-07-29T08:35:57;5.93;;;3.90;;
27213;SDS011;14723;55.814;37.460;2023-07-29T08:39:05;5.63;;;3.85;;
27213;SDS011;14723;55.814;37.460;2023-07-29T08:45:16;5.75;;;4.20;;
27213;SDS011;14723;55.814;37.460;2023-07-29T08:48:23;6.72;;;3.80;;
27213;SDS011;14723;55.814;37.460;2023-07-29T08:51:34;6.10;;;3.70;;
27213;SDS011;14723;55.814;37.460;2023-07-29T08:54:42;4.90;;;3.97;;
27213;SDS011;14723;55.814;37.460;2023-07-29T08:57:48;5.20;;;3.75;;
27213;SDS011;14723;55.814;37.460;2023-07-29T09:00:53;8.15;;;4.05;;
27213;SDS011;14723;55.814;37.460;2023-07-29T09:03:58;5.20;;;3.80;;
27213;SDS011;14723;55.814;37.460;2023-07-29T09:07:05;6.20;;;4.30;;
27213;SDS011;14723;55.814;37.460;2023-07-29T09:10:13;5.10;;;3.70;;
27213;SDS011;14723;55.814;37.460;2023-07-29T09:13:19;5.38;;;4.20;;
27213;SDS011;14723;55.814;37.460;2023-07-29T09:16:25;5.95;;;3.67;;
27213;SDS011;14723;55.814;37.460;2023-07-29T09:19:32;6.63;;;4.18;;
27213;SDS011;14723;55.814;37.460;2023-07-29T09:22:38;4.00;;;3.47;;
27213;SDS011;14723;55.814;37.460;2023-07-29T09:25:46;6.00;;;4.60;;
27213;SDS011;14723;55.814;37.460;2023-07-29T09:28:52;6.20;;;4.10;;
27213;SDS011;14723;55.814;37.460;2023-07-29T09:35:17;7.45;;;4.15;;
27213;SDS011;14723;55.814;37.460;2023-07-29T09:38:26;7.50;;;5.03;;
27213;SDS011;14723;55.814;37.460;2023-07-29T09:41:34;6.40;;;4.57;;
27213;SDS011;14723;55.814;37.460;2023-07-29T09:47:45;6.22;;;4.75;;
27213;SDS011;14723;55.814;37.460;2023-07-29T09:50:51;5.03;;;4.50;;
27213;SDS011;14723;55.814;37.460;2023-07-29T09:53:56;6.60;;;5.38;;
27213;SDS011;14723;55.814;37.460;2023-07-29T09:57:04;8.90;;;4.60;;
27213;SDS011;14723;55.814;37.460;2023-07-29T10:00:12;5.70;;;4.53;;
27213;SDS011;14723;55.814;37.460;2023-07-29T10:03:18;8.27;;;5.10;;
27213;SDS011;14723;55.814;37.460;2023-07-29T10:06:24;5.20;;;3.88;;
27213;SDS011;14723;55.814;37.460;2023-07-29T10:09:29;6.15;;;3.75;;
27213;SDS011;14723;55.814;37.460;2023-07-29T10:12:39;7.35;;;3.35;;
27213;SDS011;14723;55.814;37.460;2023-07-29T10:15:45;5.65;;;3.50;;
27213;SDS011;14723;55.814;37.460;2023-07-29T10:18:50;5.13;;;3.50;;
27213;SDS011;14723;55.814;37.460;2023-07-29T10:21:57;5.78;;;3.78;;
27213;SDS011;14723;55.814;37.460;2023-07-29T10:25:04;5.57;;;4.20;;
27213;SDS011;14723;55.814;37.460;2023-07-29T10:28:13;5.40;;;3.50;;
27213;SDS011;14723;55.814;37.460;2023-07-29T10:31:20;5.15;;;3.75;;
27213;SDS011;14723;55.814;37.460;2023-07-29T10:34:27;6.22;;;3.55;;
27213;SDS011;14723;55.814;37.460;2023-07-29T10:37:33;6.25;;;4.15;;
27213;SDS011;14723;55.814;37.460;2023-07-29T10:40:48;5.65;;;3.80;;
27213;SDS011;14723;55.814;37.460;2023-07-29T10:43:57;4.80;;;3.80;;
27213;SDS011;14723;55.814;37.460;2023-07-29T10:47:10;5.32;;;4.00;;
27213;SDS011;14723;55.814;37.460;2023-07-29T10:50:19;5.72;;;3.95;;
27213;SDS011;14723;55.814;37.460;2023-07-29T10:53:26;5.40;;;3.88;;
27213;SDS011;14723;55.814;37.460;2023-07-29T10:56:35;8.02;;;4.05;;
27213;SDS011;14723;55.814;37.460;2023-07-29T10:59:43;3.72;;;3.20;;
27213;SDS011;14723;55.814;37.460;2023-07-29T11:02:59;6.18;;;3.42;;
27213;SDS011;14723;55.814;37.460;2023-07-29T11:06:05;4.72;;;3.80;;
27213;SDS011;14723;55.814;37.460;2023-07-29T11:12:40;7.60;;;4.55;;
27213;SDS011;14723;55.814;37.460;2023-07-29T11:15:51;5.75;;;3.72;;
27213;SDS011;14723;55.814;37.460;2023-07-29T11:18:57;5.65;;;3.85;;
27213;SDS011;14723;55.814;37.460;2023-07-29T11:22:04;4.88;;;4.28;;
27213;SDS011;14723;55.814;37.460;2023-07-29T11:25:10;5.13;;;4.10;;
27213;SDS011;14723;55.814;37.460;2023-07-29T11:28:17;7.65;;;3.40;;
27213;SDS011;14723;55.814;37.460;2023-07-29T11:31:24;6.40;;;3.97;;
27213;SDS011;14723;55.814;37.460;2023-07-29T11:34:43;6.25;;;4.40;;
27213;SDS011;14723;55.814;37.460;2023-07-29T11:37:50;5.07;;;3.70;;
27213;SDS011;14723;55.814;37.460;2023-07-29T11:40:56;5.82;;;4.32;;
27213;SDS011;14723;55.814;37.460;2023-07-29T11:44:01;5.65;;;4.35;;
27213;SDS011;14723;55.814;37.460;2023-07-29T11:47:09;5.95;;;4.18;;
27213;SDS011;14723;55.814;37.460;2023-07-29T11:50:15;8.82;;;4.30;;
27213;SDS011;14723;55.814;37.460;2023-07-29T11:53:20;12.80;;;4.32;;
27213;SDS011;14723;55.814;37.460;2023-07-29T11:56:25;7.95;;;4.80;;
27213;SDS011;14723;55.814;37.460;2023-07-29T11:59:33;7.53;;;4.43;;
27213;SDS011;14723;55.814;37.460;2023-07-29T12:02:42;5.90;;;4.30;;
27213;SDS011;14723;55.814;37.460;2023-07-29T12:05:48;4.43;;;3.88;;
27213;SDS011;14723;55.814;37.460;2023-07-29T12:08:54;4.55;;;4.05;;
27213;SDS011;14723;55.814;37.460;2023-07-29T12:11:59;4.57;;;4.05;;
27213;SDS011;14723;55.814;37.460;2023-07-29T12:15:05;9.25;;;4.80;;
27213;SDS011;14723;55.814;37.460;2023-07-29T12:18:14;5.68;;;4.78;;
27213;SDS011;14723;55.814;37.460;2023-07-29T12:21:20;4.85;;;4.15;;
27213;SDS011;14723;55.814;37.460;2023-07-29T12:24:25;10.80;;;3.63;;
27213;SDS011;14723;55.814;37.460;2023-07-29T12:27:31;5.45;;;3.30;;
27213;SDS011;14723;55.814;37.460;2023-07-29T12:30:41;5.88;;;3.78;;
27213;SDS011;14723;55.814;37.460;2023-07-29T12:33:49;4.53;;;3.20;;
27213;SDS011;14723;55.814;37.460;2023-07-29T12:37:02;4.35;;;3.30;;
27213;SDS011;14723;55.814;37.460;2023-07-29T12:40:08;2.80;;;2.50;;
27213;SDS011;14723;55.814;37.460;2023-07-29T12:43:13;6.50;;;2.90;;
27213;SDS011;14723;55.814;37.460;2023-07-29T12:46:19;3.38;;;2.72;;
27213;SDS011;14723;55.814;37.460;2023-07-29T12:49:27;4.15;;;2.65;;
27213;SDS011;14723;55.814;37.460;2023-07-29T12:52:33;4.30;;;2.78;;
27213;SDS011;14723;55.814;37.460;2023-07-29T12:55:39;4.28;;;2.90;;
27213;SDS011;14723;55.814;37.460;2023-07-29T12:58:44;4.80;;;2.47;;
27213;SDS011;14723;55.814;37.460;2023-07-29T13:01:49;6.50;;;3.17;;
27213;SDS011;14723;55.814;37.460;2023-07-29T13:04:57;3.17;;;2.65;;
27213;SDS011;14723;55.814;37.460;2023-07-29T13:08:04;4.72;;;2.80;;
27213;SDS011;14723;55.814;37.460;2023-07-29T13:11:09;5.78;;;3.08;;
27213;SDS011;14723;55.814;37.460;2023-07-29T13:14:15;4.50;;;3.20;;
27213;SDS011;14723;55.814;37.460;2023-07-29T13:17:20;5.25;;;3.05;;
27213;SDS011;14723;55.814;37.460;2023-07-29T13:20:29;4.03;;;2.90;;
27213;SDS011;14723;55.814;37.460;2023-07-29T13:23:35;5.00;;;3.25;;
27213;SDS011;14723;55.814;37.460;2023-07-29T13:26:41;4.05;;;2.85;;
27213;SDS011;14723;55.814;37.460;2023-07-29T13:29:46;7.03;;;3.05;;
27213;SDS011;14723;55.814;37.460;2023-07-29T13:32:52;3.85;;;3.40;;
27213;SDS011;14723;55.814;37.460;2023-07-29T13:36:00;4.35;;;3.15;;
27213;SDS011;14723;55.814;37.460;2023-07-29T13:42:10;12.52;;;3.60;;
27213;SDS011;14723;55.814;37.460;2023-07-29T13:45:15;7.30;;;3.72;;
27213;SDS011;14723;55.814;37.460;2023-07-29T13:48:20;4.25;;;2.80;;
27213;SDS011;14723;55.814;37.460;2023-07-29T13:51:28;5.78;;;3.45;;
27213;SDS011;14723;55.814;37.460;2023-07-29T13:54:34;7.68;;;3.65;;
27213;SDS011;14723;55.814;37.460;2023-07-29T13:57:41;5.20;;;3.15;;
27213;SDS011;14723;55.814;37.460;2023-07-29T14:00:46;4.35;;;2.97;;
27213;SDS011;14723;55.814;37.460;2023-07-29T14:03:51;7.07;;;3.45;;
27213;SDS011;14723;55.814;37.460;2023-07-29T14:06:59;4.65;;;3.10;;
27213;SDS011;14723;55.814;37.460;2023-07-29T14:10:06;5.43;;;3.05;;
27213;SDS011;14723;55.814;37.460;2023-07-29T14:13:11;4.43;;;2.92;;
27213;SDS011;14723;55.814;37.460;2023-07-29T14:16:17;5.63;;;3.10;;
27213;SDS011;14723;55.814;37.460;2023-07-29T14:19:22;7.20;;;3.35;;
27213;SDS011;14723;55.814;37.460;2023-07-29T14:22:30;5.80;;;3.97;;
27213;SDS011;14723;55.814;37.460;2023-07-29T14:25:35;3.90;;;3.05;;
27213;SDS011;14723;55.814;37.460;2023-07-29T14:28:40;5.95;;;3.40;;
27213;SDS011;14723;55.814;37.460;2023-07-29T14:31:46;6.63;;;4.30;;
27213;SDS011;14723;55.814;37.460;2023-07-29T14:34:51;7.00;;;4.03;;
27213;SDS011;14723;55.814;37.460;2023-07-29T14:37:59;5.03;;;3.83;;
27213;SDS011;14723;55.814;37.460;2023-07-29T14:44:09;7.70;;;3.72;;
27213;SDS011;14723;55.814;37.460;2023-07-29T14:47:15;5.88;;;3.70;;
27213;SDS011;14723;55.814;37.460;2023-07-29T14:50:20;5.40;;;3.47;;
27213;SDS011;14723;55.814;37.460;2023-07-29T14:53:28;6.82;;;3.15;;
27213;SDS011;14723;55.814;37.460;2023-07-29T14:56:34;6.85;;;3.72;;
27213;SDS011;14723;55.814;37.460;2023-07-29T14:59:40;5.13;;;3.50;;
27213;SDS011;14723;55.814;37.460;2023-07-29T15:02:45;7.40;;;3.50;;
27213;SDS011;14723;55.814;37.460;2023-07-29T15:05:51;5.72;;;3.97;;
27213;SDS011;14723;55.814;37.460;2023-07-29T15:08:59;3.92;;;2.90;;
27213;SDS011;14723;55.814;37.460;2023-07-29T15:12:05;5.65;;;3.70;;
27213;SDS011;14723;55.814;37.460;2023-07-29T15:15:12;7.00;;;3.10;;
27213;SDS011;14723;55.814;37.460;2023-07-29T15:18:17;4.30;;;3.53;;
27213;SDS011;14723;55.814;37.460;2023-07-29T15:21:23;6.07;;;3.67;;
27213;SDS011;14723;55.814;37.460;2023-07-29T15:24:31;4.85;;;3.45;;
27213;SDS011;14723;55.814;37.460;2023-07-29T15:27:36;8.00;;;3.42;;
27213;SDS011;14723;55.814;37.460;2023-07-29T15:30:42;7.72;;;3.33;;
27213;SDS011;14723;55.814;37.460;2023-07-29T15:33:48;5.78;;;3.40;;
27213;SDS011;14723;55.814;37.460;2023-07-29T15:36:53;6.00;;;3.70;;
27213;SDS011;14723;55.814;37.460;2023-07-29T15:40:01;5.30;;;3.30;;
27213;SDS011;14723;55.814;37.460;2023-07-29T15:46:12;12.15;;;3.95;;
27213;SDS011;14723;55.814;37.460;2023-07-29T15:49:18;4.05;;;3.35;;
27213;SDS011;14723;55.814;37.460;2023-07-29T15:52:23;4.72;;;3.38;;
27213;SDS011;14723;55.814;37.460;2023-07-29T15:55:32;6.32;;;3.45;;
27213;SDS011;14723;55.814;37.460;2023-07-29T15:58:37;6.15;;;3.95;;
27213;SDS011;14723;55.814;37.460;2023-07-29T16:01:43;4.63;;;3.58;;
27213;SDS011;14723;55.814;37.460;2023-07-29T16:04:48;11.10;;;3.83;;
27213;SDS011;14723;55.814;37.460;2023-07-29T16:07:54;9.00;;;3.80;;
27213;SDS011;14723;55.814;37.460;2023-07-29T16:11:02;8.02;;;4.22;;
27213;SDS011;14723;55.814;37.460;2023-07-29T16:14:07;6.03;;;3.90;;
27213;SDS011;14723;55.814;37.460;2023-07-29T16:17:13;7.80;;;4.45;;
27213;SDS011;14723;55.814;37.460;2023-07-29T16:20:18;9.85;;;5.38;;
27213;SDS011;14723;55.814;37.460;2023-07-29T16:23:24;8.02;;;3.63;;
27213;SDS011;14723;55.814;37.460;2023-07-29T16:26:32;7.43;;;4.57;;
27213;SDS011;14723;55.814;37.460;2023-07-29T16:32:42;6.22;;;4.40;;
27213;SDS011;14723;55.814;37.460;2023-07-29T16:35:48;7.30;;;3.78;;
27213;SDS011;14723;55.814;37.460;2023-07-29T16:38:54;4.90;;;3.50;;
27213;SDS011;14723;55.814;37.460;2023-07-29T16:42:02;5.93;;;3.85;;
27213;SDS011;14723;55.814;37.460;2023-07-29T16:45:08;5.72;;;3.75;;
27213;SDS011;14723;55.814;37.460;2023-07-29T16:48:14;6.45;;;4.03;;
27213;SDS011;14723;55.814;37.460;2023-07-29T16:51:19;6.75;;;3.85;;
27213;SDS011;14723;55.814;37.460;2023-07-29T16:54:24;6.28;;;4.00;;
27213;SDS011;14723;55.814;37.460;2023-07-29T16:57:34;5.65;;;4.70;;
27213;SDS011;14723;55.814;37.460;2023-07-29T17:00:40;6.15;;;4.28;;
27213;SDS011;14723;55.814;37.460;2023-07-29T17:03:45;6.65;;;4.47;;
27213;SDS011;14723;55.814;37.460;2023-07-29T17:06:51;6.95;;;4.13;;
27213;SDS011;14723;55.814;37.460;2023-07-29T17:09:56;7.45;;;4.30;;
27213;SDS011;14723;55.814;37.460;2023-07-29T17:13:05;6.57;;;4.22;;
27213;SDS011;14723;55.814;37.460;2023-07-29T17:16:10;8.25;;;4.57;;
27213;SDS011;14723;55.814;37.460;2023-07-29T17:19:16;6.38;;;4.53;;
27213;SDS011;14723;55.814;37.460;2023-07-29T17:22:21;8.70;;;5.07;;
27213;SDS011;14723;55.814;37.460;2023-07-29T17:25:26;6.90;;;4.70;;
27213;SDS011;14723;55.814;37.460;2023-07-29T17:28:36;5.55;;;4.10;;
27213;SDS011;14723;55.814;37.460;2023-07-29T17:31:42;7.40;;;4.57;;
27213;SDS011;14723;55.814;37.460;2023-07-29T17:34:48;6.05;;;4.45;;
27213;SDS011;14723;55.814;37.460;2023-07-29T17:37:53;7.43;;;4.65;;
27213;SDS011;14723;55.814;37.460;2023-07-29T17:40:58;7.95;;;4.82;;
27213;SDS011;14723;55.814;37.460;2023-07-29T17:44:07;9.15;;;4.93;;
27213;SDS011;14723;55.814;37.460;2023-07-29T17:47:12;11.68;;;5.10;;
27213;SDS011;14723;55.814;37.460;2023-07-29T17:53:26;7.22;;;5.30;;
27213;SDS011;14723;55.814;37.460;2023-07-29T17:56:32;10.52;;;5.82;;
27213;SDS011;14723;55.814;37.460;2023-07-29T17:59:41;7.40;;;5.43;;
27213;SDS011;14723;55.814;37.460;2023-07-29T18:02:47;7.78;;;5.22;;
27213;SDS011;14723;55.814;37.460;2023-07-29T18:05:54;8.00;;;5.70;;
27213;SDS011;14723;55.814;37.460;2023-07-29T18:09:00;10.40;;;5.95;;
27213;SDS011;14723;55.814;37.460;2023-07-29T18:12:05;9.80;;;6.47;;
27213;SDS011;14723;55.814;37.460;2023-07-29T18:15:14;10.32;;;6.45;;
27213;SDS011;14723;55.814;37.460;2023-07-29T18:18:19;9.60;;;6.25;;
27213;SDS011;14723;55.814;37.460;2023-07-29T18:21:24;11.43;;;5.97;;
27213;SDS011;14723;55.814;37.460;2023-07-29T18:24:30;9.63;;;6.32;;
27213;SDS011;14723;55.814;37.460;2023-07-29T18:27:35;8.98;;;6.30;;
27213;SDS011;14723;55.814;37.460;2023-07-29T18:30:43;10.02;;;6.72;;
27213;SDS011;14723;55.814;37.460;2023-07-29T18:33:49;9.85;;;6.30;;
27213;SDS011;14723;55.814;37.460;2023-07-29T18:36:55;9.55;;;6.82;;
27213;SDS011;14723;55.814;37.460;2023-07-29T18:40:00;11.23;;;7.10;;
27213;SDS011;14723;55.814;37.460;2023-07-29T18:43:06;11.15;;;7.35;;
27213;SDS011;14723;55.814;37.460;2023-07-29T18:46:14;10.07;;;7.20;;
27213;SDS011;14723;55.814;37.460;2023-07-29T18:49:19;10.02;;;6.78;;
27213;SDS011;14723;55.814;37.460;2023-07-29T18:52:25;11.18;;;7.15;;
27213;SDS011;14723;55.814;37.460;2023-07-29T18:55:30;10.48;;;7.05;;
27213;SDS011;14723;55.814;37.460;2023-07-29T18:58:36;10.90;;;7.55;;